Airfield :
LOGIN :

Register | Disclaimer

   EN    FR    IT 

 










Legend :    VFR   Marginal VFR   IFR   Intensive IFR   Very Intensive IFR
Visi :
Ceiling :
>= 8 km
>= 3000ft
5 to 8 km
1000 to 3000 ft
1500m to 5 km
500 to 1000 ft
800 to 1500m
200 to 500 ft
< 800m
< 200 ft
Symbols :   Thunderstorms  Fog  Heavy snow  Heavy precipitations  Wind > 20 kt
SIGMETs :     Misc.  Thunderstorms  Icing  Turbulence  Mountain Waves  Volcanic Ashes






- Airport Elevation : 586 ft
- IATA code : IEV


UKKK - Zhuliany

CURRENT METAR :
  • 050900Z 32007G14MPS 290V010 CAVOK 10/M07 Q1032 R26/190060 NOSIG

EXPIRED METARs :
  • 050830Z 33007G14MPS 300V020 CAVOK 09/M06 Q1032 R26/190060 NOSIG
  • 050800Z 34005MPS 300V010 CAVOK 09/M06 Q1032 R26/190060 NOSIG
  • 050730Z 34004MPS 310V010 9000 NSC 08/M06 Q1032 R26/190060 NOSIG
  • 050700Z 36003MPS 310V040 9000 NSC 07/M06 Q1032 R26/190060 NOSIG
  • 050630Z 34003MPS 310V040 6000 NSC 07/M06 Q1032 R26/190060 TEMPO 2000 BR

TAF AMD TAF UKKK
Valid from the 05 at 08:00 until the 06 at 06:00 UTC


050830Z 0508/0606 32006G11MPS 9999 SCT020 TX11/0512Z TNM02/0603Z
TEMPO 0508/0516 35009G14MPS
BECMG 0516/0618 VRB01MPS 3000 FU SCT012
TEMPO 0518/0606 1000 FU



MET'MAP, your aeronautical weather chart ! - Copyright ORBIFLY December 2007 - Disclaimer

ORBIFLY MET'MAP TEAM :

Programming & Development : Alexandra Zaïnal
Concept & original design : Baudouin d'Aumeries
Assistance for programming : Marc-Olivier Méhu
Technical & hardware support : Manuel Goepfert

Contact : metmap@orbifly.com




SOURCES & CREDITS :

   NOAA